SAS34M ENBR-LJLJ
Flight info
| Callsign | SAS34M |
|---|---|
| Flight time | 2h 9m |
| Altitude | 35000 |
| Route | TUXIL DCT ZOL DCT ALASA DCT MAREM DCT APRAQ DCT BERTA BERTA2L |
| Aircraft | A320/M-SDE3FGHIRWY/LB1 |
Departure
| Time | 2026-04-15 12:59 |
|---|---|
| Airport | Bergen Airport, Flesland (ENBR) |
Arrival
| Time | 2026-04-15 15:09 |
|---|---|
| Airport | Ljubljana Jože Pučnik Airport (LJLJ) |
| Time | Latitude | Longitude | Altitude | Speed | Heading |
|---|---|---|---|---|---|
| 2026-04-15 12:17 | 60.28932 | 5.22547 | 175 ft | 0 kts | 108° |
| 2026-04-15 12:49 | 60.28932 | 5.22546 | 202 ft | 2 kts | 108° |
| 2026-04-15 12:50 | 60.28939 | 5.22497 | 175 ft | 4 kts | 105° |
| 2026-04-15 12:50 | 60.28946 | 5.22445 | 175 ft | 4 kts | 98° |
| 2026-04-15 12:50 | 60.28947 | 5.22392 | 175 ft | 4 kts | 74° |
| 2026-04-15 12:50 | 60.28938 | 5.22360 | 174 ft | 0 kts | 30° |
| 2026-04-15 12:51 | 60.28938 | 5.22359 | 174 ft | 0 kts | 30° |
| 2026-04-15 12:54 | 60.28940 | 5.22362 | 174 ft | 3 kts | 30° |
| 2026-04-15 12:54 | 60.28997 | 5.22376 | 175 ft | 15 kts | 354° |
| 2026-04-15 12:54 | 60.29104 | 5.22338 | 178 ft | 15 kts | 349° |
| 2026-04-15 12:54 | 60.29214 | 5.22301 | 175 ft | 19 kts | 350° |
| 2026-04-15 12:55 | 60.29363 | 5.22249 | 165 ft | 24 kts | 350° |
| 2026-04-15 12:55 | 60.29424 | 5.22138 | 160 ft | 13 kts | 300° |
| 2026-04-15 12:55 | 60.29522 | 5.22075 | 156 ft | 17 kts | 352° |
| 2026-04-15 12:55 | 60.29654 | 5.22032 | 151 ft | 21 kts | 350° |
| 2026-04-15 12:56 | 60.29811 | 5.21978 | 150 ft | 23 kts | 352° |
| 2026-04-15 12:56 | 60.29963 | 5.21927 | 156 ft | 21 kts | 350° |
| 2026-04-15 12:56 | 60.30104 | 5.21879 | 162 ft | 20 kts | 351° |
| 2026-04-15 12:56 | 60.30231 | 5.21839 | 168 ft | 17 kts | 350° |
| 2026-04-15 12:57 | 60.30343 | 5.21799 | 173 ft | 15 kts | 350° |
| 2026-04-15 12:57 | 60.30440 | 5.21767 | 177 ft | 13 kts | 351° |
| 2026-04-15 12:57 | 60.30523 | 5.21740 | 181 ft | 11 kts | 351° |
| 2026-04-15 12:57 | 60.30593 | 5.21717 | 188 ft | 10 kts | 351° |
| 2026-04-15 12:58 | 60.30661 | 5.21627 | 181 ft | 15 kts | 283° |
| 2026-04-15 12:58 | 60.30631 | 5.21402 | 178 ft | 17 kts | 217° |
| 2026-04-15 12:58 | 60.30524 | 5.21417 | 176 ft | 16 kts | 171° |
| 2026-04-15 12:58 | 60.30339 | 5.21480 | 171 ft | 53 kts | 170° |
| 2026-04-15 12:59 | 60.28861 | 5.21977 | 169 ft | 153 kts | 167° |
| 2026-04-15 12:59 | 60.27805 | 5.22369 | 715 ft | 153 kts | 167° |
| 2026-04-15 12:59 | 60.26754 | 5.22759 | 1352 ft | 155 kts | 168° |
| 2026-04-15 13:00 | 60.25642 | 5.23115 | 1657 ft | 173 kts | 169° |
| 2026-04-15 13:00 | 60.24379 | 5.23509 | 1899 ft | 193 kts | 169° |
| 2026-04-15 13:00 | 60.22951 | 5.23975 | 2083 ft | 223 kts | 169° |
| 2026-04-15 13:00 | 60.21357 | 5.24491 | 2638 ft | 239 kts | 169° |
| 2026-04-15 13:01 | 60.19699 | 5.25035 | 3490 ft | 243 kts | 169° |
| 2026-04-15 13:01 | 60.18018 | 5.25592 | 4390 ft | 244 kts | 169° |
| 2026-04-15 13:01 | 60.16349 | 5.26144 | 5379 ft | 242 kts | 169° |
| 2026-04-15 13:01 | 60.14683 | 5.26706 | 6213 ft | 245 kts | 169° |
| 2026-04-15 13:02 | 60.12984 | 5.27292 | 6947 ft | 251 kts | 170° |
| 2026-04-15 13:02 | 60.11233 | 5.27862 | 7611 ft | 258 kts | 171° |
| 2026-04-15 13:02 | 60.09445 | 5.28435 | 8350 ft | 262 kts | 171° |
| 2026-04-15 13:02 | 60.07624 | 5.28979 | 9081 ft | 267 kts | 173° |
| 2026-04-15 13:03 | 60.05762 | 5.29483 | 9736 ft | 274 kts | 174° |
| 2026-04-15 13:03 | 60.03856 | 5.29986 | 10402 ft | 279 kts | 174° |
| 2026-04-15 13:03 | 60.01876 | 5.30500 | 10574 ft | 301 kts | 174° |
| 2026-04-15 13:03 | 59.99727 | 5.31053 | 10826 ft | 318 kts | 174° |
| 2026-04-15 13:04 | 59.97504 | 5.31634 | 11332 ft | 326 kts | 173° |
| 2026-04-15 13:04 | 59.95219 | 5.32248 | 11863 ft | 333 kts | 173° |
| 2026-04-15 13:04 | 59.92918 | 5.32878 | 12475 ft | 337 kts | 173° |
| 2026-04-15 13:04 | 59.90573 | 5.33511 | 13052 ft | 343 kts | 173° |
| 2026-04-15 13:05 | 59.88187 | 5.34145 | 13641 ft | 348 kts | 173° |
| 2026-04-15 13:05 | 59.85773 | 5.34785 | 14193 ft | 353 kts | 173° |
| 2026-04-15 13:05 | 59.83315 | 5.35429 | 14711 ft | 358 kts | 173° |
| 2026-04-15 13:05 | 59.80864 | 5.36073 | 15221 ft | 362 kts | 173° |
| 2026-04-15 13:06 | 59.78342 | 5.36683 | 15687 ft | 368 kts | 174° |
| 2026-04-15 13:06 | 59.75775 | 5.37170 | 16195 ft | 372 kts | 176° |
| 2026-04-15 13:06 | 59.73180 | 5.37571 | 16719 ft | 375 kts | 176° |
| 2026-04-15 13:06 | 59.70543 | 5.37943 | 17223 ft | 379 kts | 177° |
| 2026-04-15 13:07 | 59.67892 | 5.38320 | 17759 ft | 383 kts | 176° |
| 2026-04-15 13:07 | 59.65216 | 5.38726 | 18209 ft | 389 kts | 176° |
| 2026-04-15 13:07 | 59.62505 | 5.39232 | 18699 ft | 393 kts | 174° |
| 2026-04-15 13:07 | 59.59766 | 5.39884 | 19081 ft | 400 kts | 173° |
| 2026-04-15 13:08 | 59.56995 | 5.40631 | 19546 ft | 403 kts | 172° |
| 2026-04-15 13:08 | 59.54216 | 5.41407 | 20140 ft | 403 kts | 173° |
| 2026-04-15 13:08 | 59.51418 | 5.42178 | 20589 ft | 408 kts | 172° |
| 2026-04-15 13:08 | 59.48610 | 5.42928 | 21192 ft | 407 kts | 173° |
| 2026-04-15 13:09 | 59.45803 | 5.43650 | 21740 ft | 409 kts | 173° |
| 2026-04-15 13:09 | 59.42997 | 5.44352 | 22208 ft | 411 kts | 173° |
| 2026-04-15 13:09 | 59.40147 | 5.45060 | 22669 ft | 415 kts | 173° |
| 2026-04-15 13:09 | 59.37278 | 5.45899 | 23110 ft | 418 kts | 171° |
| 2026-04-15 13:10 | 59.34409 | 5.46898 | 23600 ft | 420 kts | 169° |
| 2026-04-15 13:10 | 59.31523 | 5.47998 | 23994 ft | 423 kts | 169° |
| 2026-04-15 13:10 | 59.28629 | 5.49132 | 24402 ft | 425 kts | 169° |
| 2026-04-15 13:10 | 59.25727 | 5.50260 | 24798 ft | 426 kts | 169° |
| 2026-04-15 13:11 | 59.22809 | 5.51370 | 25148 ft | 429 kts | 170° |
| 2026-04-15 13:11 | 59.19871 | 5.52457 | 25522 ft | 431 kts | 171° |
| 2026-04-15 13:11 | 59.16901 | 5.53531 | 25762 ft | 436 kts | 171° |
| 2026-04-15 13:11 | 59.13909 | 5.54600 | 26112 ft | 438 kts | 170° |
| 2026-04-15 13:12 | 59.10908 | 5.55667 | 26515 ft | 439 kts | 172° |
| 2026-04-15 13:12 | 59.07901 | 5.56736 | 26871 ft | 440 kts | 172° |
| 2026-04-15 13:12 | 59.04883 | 5.57809 | 27281 ft | 440 kts | 171° |
| 2026-04-15 13:12 | 59.01871 | 5.58883 | 27597 ft | 443 kts | 172° |
| 2026-04-15 13:13 | 58.98834 | 5.59971 | 27930 ft | 444 kts | 172° |
| 2026-04-15 13:13 | 58.95828 | 5.61051 | 28249 ft | 447 kts | 172° |
| 2026-04-15 13:13 | 58.92718 | 5.62161 | 28587 ft | 449 kts | 173° |
| 2026-04-15 13:13 | 58.89700 | 5.63359 | 28959 ft | 451 kts | 168° |
| 2026-04-15 13:14 | 58.86732 | 5.65377 | 29286 ft | 456 kts | 157° |
| 2026-04-15 13:14 | 58.83937 | 5.68310 | 29709 ft | 457 kts | 149° |
| 2026-04-15 13:14 | 58.81248 | 5.71572 | 30217 ft | 455 kts | 150° |
| 2026-04-15 13:14 | 58.78573 | 5.74801 | 30624 ft | 453 kts | 150° |
| 2026-04-15 13:15 | 58.75897 | 5.78016 | 30973 ft | 453 kts | 150° |
| 2026-04-15 13:15 | 58.73212 | 5.81228 | 31311 ft | 454 kts | 150° |
| 2026-04-15 13:15 | 58.70533 | 5.84426 | 31646 ft | 454 kts | 151° |
| 2026-04-15 13:15 | 58.67838 | 5.87635 | 31979 ft | 455 kts | 151° |
| 2026-04-15 13:16 | 58.65137 | 5.90848 | 32313 ft | 455 kts | 151° |
| 2026-04-15 13:16 | 58.62451 | 5.94040 | 32668 ft | 455 kts | 151° |
| 2026-04-15 13:16 | 58.59771 | 5.97219 | 33020 ft | 455 kts | 151° |
| 2026-04-15 13:16 | 58.57069 | 6.00418 | 33352 ft | 456 kts | 152° |
| 2026-04-15 13:17 | 58.54367 | 6.03613 | 33704 ft | 456 kts | 152° |
| 2026-04-15 13:17 | 58.51667 | 6.06806 | 34032 ft | 456 kts | 152° |
| 2026-04-15 13:17 | 58.48988 | 6.09971 | 34321 ft | 457 kts | 152° |
| 2026-04-15 13:17 | 58.46249 | 6.13196 | 34599 ft | 457 kts | 152° |
| 2026-04-15 13:18 | 58.43574 | 6.16329 | 34866 ft | 456 kts | 152° |
| 2026-04-15 13:18 | 58.40850 | 6.19512 | 35123 ft | 456 kts | 152° |
| 2026-04-15 13:18 | 58.35409 | 6.25865 | 35216 ft | 466 kts | 152° |
| 2026-04-15 13:19 | 58.29866 | 6.32320 | 35209 ft | 468 kts | 152° |
| 2026-04-15 13:19 | 58.24310 | 6.38780 | 35214 ft | 468 kts | 152° |
| 2026-04-15 13:20 | 58.18748 | 6.45223 | 35225 ft | 467 kts | 152° |
| 2026-04-15 13:20 | 58.13195 | 6.51615 | 35226 ft | 467 kts | 152° |
| 2026-04-15 13:21 | 58.07666 | 6.57948 | 35232 ft | 468 kts | 152° |
| 2026-04-15 13:21 | 58.02096 | 6.64310 | 35231 ft | 468 kts | 152° |
| 2026-04-15 13:22 | 57.96525 | 6.70647 | 35238 ft | 467 kts | 152° |
| 2026-04-15 13:22 | 57.90948 | 6.76961 | 35233 ft | 469 kts | 152° |
| 2026-04-15 13:23 | 57.85343 | 6.83293 | 35226 ft | 470 kts | 152° |
| 2026-04-15 13:23 | 57.79723 | 6.89630 | 35224 ft | 472 kts | 152° |
| 2026-04-15 13:24 | 57.74130 | 6.95915 | 35230 ft | 472 kts | 153° |
| 2026-04-15 13:24 | 57.68495 | 7.02223 | 35217 ft | 472 kts | 153° |
| 2026-04-15 13:25 | 57.62845 | 7.08512 | 35236 ft | 472 kts | 153° |
| 2026-04-15 13:25 | 57.57190 | 7.14790 | 35251 ft | 472 kts | 153° |
| 2026-04-15 13:26 | 57.51550 | 7.21023 | 35249 ft | 472 kts | 153° |
| 2026-04-15 13:26 | 57.45910 | 7.27232 | 35238 ft | 474 kts | 153° |
| 2026-04-15 13:27 | 57.40222 | 7.33477 | 35206 ft | 475 kts | 153° |
| 2026-04-15 13:27 | 57.34527 | 7.39714 | 35217 ft | 476 kts | 153° |
| 2026-04-15 13:28 | 57.28815 | 7.45937 | 35230 ft | 476 kts | 153° |
| 2026-04-15 13:28 | 57.23143 | 7.52094 | 35237 ft | 476 kts | 153° |
| 2026-04-15 13:29 | 57.17431 | 7.58275 | 35238 ft | 476 kts | 153° |
| 2026-04-15 13:29 | 57.11716 | 7.64423 | 35232 ft | 476 kts | 153° |
| 2026-04-15 13:30 | 57.06958 | 7.69537 | 35262 ft | 476 kts | 153° |
| 2026-04-15 13:30 | 57.01235 | 7.75677 | 35224 ft | 477 kts | 153° |
| 2026-04-15 13:31 | 56.95471 | 7.81830 | 35223 ft | 479 kts | 154° |
| 2026-04-15 13:31 | 56.89694 | 7.87965 | 35220 ft | 480 kts | 154° |
| 2026-04-15 13:32 | 56.83929 | 7.94060 | 35201 ft | 480 kts | 154° |
| 2026-04-15 13:32 | 56.78148 | 8.00158 | 35221 ft | 479 kts | 154° |
| 2026-04-15 13:33 | 56.72367 | 8.06245 | 35233 ft | 479 kts | 154° |
| 2026-04-15 13:33 | 56.66594 | 8.12318 | 35230 ft | 479 kts | 154° |
| 2026-04-15 13:34 | 56.60816 | 8.18348 | 35219 ft | 480 kts | 154° |
| 2026-04-15 13:34 | 56.55042 | 8.24355 | 35202 ft | 481 kts | 154° |
| 2026-04-15 13:35 | 56.49224 | 8.30391 | 35202 ft | 482 kts | 154° |
| 2026-04-15 13:35 | 56.43389 | 8.36426 | 35220 ft | 482 kts | 154° |
| 2026-04-15 13:36 | 56.37574 | 8.42405 | 35219 ft | 482 kts | 154° |
| 2026-04-15 13:36 | 56.31723 | 8.48392 | 35223 ft | 482 kts | 154° |
| 2026-04-15 13:37 | 56.25917 | 8.54332 | 35216 ft | 482 kts | 154° |
| 2026-04-15 13:37 | 56.20087 | 8.60281 | 35244 ft | 482 kts | 154° |
| 2026-04-15 13:38 | 56.14237 | 8.66220 | 35220 ft | 483 kts | 154° |
| 2026-04-15 13:38 | 56.08417 | 8.72103 | 35218 ft | 484 kts | 154° |
| 2026-04-15 13:39 | 56.02532 | 8.78025 | 35219 ft | 484 kts | 154° |
| 2026-04-15 13:39 | 55.96659 | 8.83920 | 35205 ft | 484 kts | 154° |
| 2026-04-15 13:40 | 55.90786 | 8.89800 | 35235 ft | 484 kts | 154° |
| 2026-04-15 13:40 | 55.84909 | 8.95665 | 35250 ft | 484 kts | 154° |
| 2026-04-15 13:41 | 55.79038 | 9.01504 | 35261 ft | 484 kts | 154° |
| 2026-04-15 13:41 | 55.73153 | 9.07334 | 35250 ft | 485 kts | 154° |
| 2026-04-15 13:42 | 55.67289 | 9.13121 | 35239 ft | 486 kts | 154° |
| 2026-04-15 13:42 | 55.61374 | 9.18938 | 35237 ft | 487 kts | 154° |
| 2026-04-15 13:43 | 55.55447 | 9.24754 | 35235 ft | 487 kts | 154° |
| 2026-04-15 13:43 | 55.49507 | 9.30564 | 35245 ft | 488 kts | 155° |
| 2026-04-15 13:44 | 55.43552 | 9.36358 | 35250 ft | 488 kts | 155° |
| 2026-04-15 13:44 | 55.37611 | 9.42123 | 35245 ft | 487 kts | 155° |
| 2026-04-15 13:45 | 55.31661 | 9.47866 | 35248 ft | 488 kts | 155° |
| 2026-04-15 13:47 | 55.07787 | 9.70744 | 35246 ft | 489 kts | 155° |
| 2026-04-15 13:47 | 55.01808 | 9.76423 | 35258 ft | 489 kts | 155° |
| 2026-04-15 13:48 | 54.95832 | 9.82070 | 35261 ft | 488 kts | 155° |
| 2026-04-15 13:48 | 54.89892 | 9.87679 | 35263 ft | 489 kts | 155° |
| 2026-04-15 13:49 | 54.83895 | 9.93308 | 35215 ft | 490 kts | 155° |
| 2026-04-15 13:49 | 54.77901 | 9.98988 | 35227 ft | 491 kts | 154° |
| 2026-04-15 13:50 | 54.71982 | 10.04903 | 35232 ft | 491 kts | 153° |
| 2026-04-15 13:50 | 54.66107 | 10.10842 | 35232 ft | 491 kts | 153° |
| 2026-04-15 13:51 | 54.60170 | 10.16753 | 35230 ft | 491 kts | 153° |
| 2026-04-15 13:51 | 54.54269 | 10.22551 | 35219 ft | 490 kts | 153° |
| 2026-04-15 13:52 | 54.48340 | 10.28359 | 35232 ft | 490 kts | 153° |
| 2026-04-15 13:52 | 54.42421 | 10.34152 | 35260 ft | 489 kts | 153° |
| 2026-04-15 13:53 | 54.36507 | 10.39931 | 35241 ft | 489 kts | 153° |
| 2026-04-15 13:53 | 54.30580 | 10.45702 | 35242 ft | 489 kts | 153° |
| 2026-04-15 13:54 | 54.24703 | 10.51397 | 35233 ft | 488 kts | 153° |
| 2026-04-15 13:54 | 54.18803 | 10.57099 | 35232 ft | 487 kts | 153° |
| 2026-04-15 13:55 | 54.12901 | 10.62783 | 35251 ft | 487 kts | 153° |
| 2026-04-15 13:55 | 54.06989 | 10.68453 | 35219 ft | 487 kts | 153° |
| 2026-04-15 13:56 | 54.01074 | 10.74112 | 35195 ft | 488 kts | 153° |
| 2026-04-15 13:56 | 53.95154 | 10.79757 | 35216 ft | 488 kts | 153° |
| 2026-04-15 13:57 | 53.89228 | 10.85384 | 35218 ft | 488 kts | 153° |
| 2026-04-15 13:57 | 53.83297 | 10.91007 | 35223 ft | 488 kts | 153° |
| 2026-04-15 13:58 | 53.77405 | 10.96572 | 35228 ft | 488 kts | 153° |
| 2026-04-15 13:58 | 53.71481 | 11.02151 | 35216 ft | 488 kts | 153° |
| 2026-04-15 13:59 | 53.65546 | 11.07720 | 35212 ft | 488 kts | 153° |
| 2026-04-15 13:59 | 53.59604 | 11.13271 | 35216 ft | 489 kts | 153° |
| 2026-04-15 14:00 | 53.53648 | 11.18816 | 35219 ft | 489 kts | 153° |
| 2026-04-15 14:00 | 53.47700 | 11.24354 | 35226 ft | 489 kts | 153° |
| 2026-04-15 14:01 | 53.38810 | 11.32577 | 35222 ft | 488 kts | 153° |
| 2026-04-15 14:02 | 53.32861 | 11.38054 | 35245 ft | 488 kts | 153° |
| 2026-04-15 14:02 | 53.26898 | 11.43538 | 35227 ft | 489 kts | 153° |
| 2026-04-15 14:03 | 53.20928 | 11.49006 | 35228 ft | 490 kts | 153° |
| 2026-04-15 14:03 | 53.14968 | 11.54452 | 35218 ft | 489 kts | 153° |
| 2026-04-15 14:04 | 53.08989 | 11.59874 | 35232 ft | 489 kts | 153° |
| 2026-04-15 14:04 | 53.03016 | 11.65286 | 35237 ft | 489 kts | 153° |
| 2026-04-15 14:05 | 52.97048 | 11.70700 | 35245 ft | 489 kts | 153° |
| 2026-04-15 14:05 | 52.91068 | 11.76092 | 35246 ft | 489 kts | 153° |
| 2026-04-15 14:06 | 52.85071 | 11.81468 | 35234 ft | 490 kts | 153° |
| 2026-04-15 14:06 | 52.79073 | 11.86835 | 35234 ft | 490 kts | 153° |
| 2026-04-15 14:07 | 52.73110 | 11.92165 | 35237 ft | 491 kts | 153° |
| 2026-04-15 14:07 | 52.67099 | 11.97522 | 35242 ft | 491 kts | 153° |
| 2026-04-15 14:08 | 52.61081 | 12.02856 | 35232 ft | 491 kts | 153° |
| 2026-04-15 14:08 | 52.55065 | 12.08163 | 35256 ft | 491 kts | 153° |
| 2026-04-15 14:09 | 52.49044 | 12.13464 | 35252 ft | 491 kts | 153° |
| 2026-04-15 14:09 | 52.43020 | 12.18767 | 35249 ft | 491 kts | 153° |
| 2026-04-15 14:10 | 52.36988 | 12.24066 | 35228 ft | 492 kts | 153° |
| 2026-04-15 14:10 | 52.30988 | 12.29306 | 35246 ft | 491 kts | 153° |
| 2026-04-15 14:11 | 52.24946 | 12.34563 | 35258 ft | 491 kts | 153° |
| 2026-04-15 14:11 | 52.18929 | 12.39785 | 35259 ft | 491 kts | 153° |
| 2026-04-15 14:12 | 52.12865 | 12.45036 | 35263 ft | 491 kts | 152° |
| 2026-04-15 14:12 | 52.06862 | 12.50210 | 35242 ft | 491 kts | 152° |
| 2026-04-15 14:13 | 52.00822 | 12.55402 | 35245 ft | 491 kts | 152° |
| 2026-04-15 14:13 | 51.94773 | 12.60590 | 35255 ft | 491 kts | 152° |
| 2026-04-15 14:14 | 51.88722 | 12.65762 | 35260 ft | 491 kts | 152° |
| 2026-04-15 14:14 | 51.82674 | 12.70907 | 35247 ft | 491 kts | 152° |
| 2026-04-15 14:15 | 51.76621 | 12.76055 | 35267 ft | 491 kts | 152° |
| 2026-04-15 14:15 | 51.70562 | 12.81186 | 35265 ft | 491 kts | 152° |
| 2026-04-15 14:16 | 51.64541 | 12.86266 | 35265 ft | 491 kts | 152° |
| 2026-04-15 14:16 | 51.58481 | 12.91379 | 35267 ft | 492 kts | 152° |
| 2026-04-15 14:17 | 51.52409 | 12.96479 | 35256 ft | 491 kts | 152° |
| 2026-04-15 14:17 | 51.46348 | 13.01534 | 35262 ft | 491 kts | 152° |
| 2026-04-15 14:18 | 51.40286 | 13.06572 | 35284 ft | 491 kts | 152° |
| 2026-04-15 14:18 | 51.34227 | 13.11621 | 35276 ft | 491 kts | 152° |
| 2026-04-15 14:19 | 51.28210 | 13.16621 | 35259 ft | 491 kts | 152° |
| 2026-04-15 14:19 | 51.22148 | 13.21638 | 35262 ft | 490 kts | 152° |
| 2026-04-15 14:20 | 51.16084 | 13.26643 | 35262 ft | 490 kts | 152° |
| 2026-04-15 14:20 | 51.11047 | 13.30780 | 35263 ft | 490 kts | 152° |
| 2026-04-15 14:21 | 51.04983 | 13.35748 | 35280 ft | 490 kts | 152° |
| 2026-04-15 14:21 | 50.98916 | 13.40700 | 35265 ft | 489 kts | 152° |
| 2026-04-15 14:22 | 50.92865 | 13.45622 | 35264 ft | 489 kts | 152° |
| 2026-04-15 14:22 | 50.86809 | 13.50538 | 35260 ft | 488 kts | 152° |
| 2026-04-15 14:23 | 50.80760 | 13.55443 | 35254 ft | 488 kts | 152° |
| 2026-04-15 14:23 | 50.74753 | 13.60298 | 35246 ft | 488 kts | 151° |
| 2026-04-15 14:24 | 50.68482 | 13.64361 | 35250 ft | 488 kts | 163° |
| 2026-04-15 14:24 | 50.61973 | 13.67409 | 35247 ft | 488 kts | 163° |
| 2026-04-15 14:25 | 50.55453 | 13.70462 | 35253 ft | 488 kts | 163° |
| 2026-04-15 14:25 | 50.48936 | 13.73522 | 35249 ft | 488 kts | 163° |
| 2026-04-15 14:26 | 50.42467 | 13.76561 | 35254 ft | 488 kts | 163° |
| 2026-04-15 14:26 | 50.35958 | 13.79618 | 35257 ft | 488 kts | 163° |
| 2026-04-15 14:27 | 50.29454 | 13.82652 | 35256 ft | 488 kts | 163° |
| 2026-04-15 14:27 | 50.22945 | 13.85664 | 35254 ft | 488 kts | 163° |
| 2026-04-15 14:28 | 50.16443 | 13.88656 | 35270 ft | 487 kts | 163° |
| 2026-04-15 14:28 | 50.09912 | 13.91668 | 35261 ft | 487 kts | 163° |
| 2026-04-15 14:29 | 50.03423 | 13.94662 | 35244 ft | 487 kts | 162° |
| 2026-04-15 14:29 | 49.96931 | 13.97642 | 35251 ft | 487 kts | 162° |
| 2026-04-15 14:30 | 49.90425 | 14.00615 | 35256 ft | 486 kts | 162° |
| 2026-04-15 14:30 | 49.83966 | 14.03562 | 35255 ft | 486 kts | 162° |
| 2026-04-15 14:31 | 49.77473 | 14.06509 | 35248 ft | 486 kts | 162° |
| 2026-04-15 14:31 | 49.70987 | 14.09456 | 35247 ft | 486 kts | 162° |
| 2026-04-15 14:32 | 49.64466 | 14.12211 | 35257 ft | 486 kts | 169° |
| 2026-04-15 14:32 | 49.57742 | 14.13424 | 35251 ft | 486 kts | 173° |
| 2026-04-15 14:33 | 49.51011 | 14.14545 | 35244 ft | 486 kts | 173° |
| 2026-04-15 14:33 | 49.44288 | 14.15676 | 35241 ft | 486 kts | 173° |
| 2026-04-15 14:34 | 49.37556 | 14.16791 | 35240 ft | 487 kts | 173° |
| 2026-04-15 14:34 | 49.30863 | 14.17891 | 35230 ft | 487 kts | 173° |
| 2026-04-15 14:35 | 49.24133 | 14.19003 | 35237 ft | 487 kts | 173° |
| 2026-04-15 14:35 | 49.17390 | 14.20124 | 35241 ft | 487 kts | 173° |
| 2026-04-15 14:36 | 49.10655 | 14.21230 | 35243 ft | 487 kts | 173° |
| 2026-04-15 14:36 | 49.03919 | 14.22320 | 35237 ft | 486 kts | 173° |
| 2026-04-15 14:37 | 48.97185 | 14.23410 | 35254 ft | 486 kts | 172° |
| 2026-04-15 14:37 | 48.90502 | 14.24502 | 35241 ft | 486 kts | 172° |
| 2026-04-15 14:38 | 48.83771 | 14.25597 | 35227 ft | 485 kts | 172° |
| 2026-04-15 14:38 | 48.77060 | 14.26683 | 35228 ft | 485 kts | 172° |
| 2026-04-15 14:39 | 48.70344 | 14.27761 | 35221 ft | 485 kts | 172° |
| 2026-04-15 14:39 | 48.63631 | 14.28841 | 35219 ft | 485 kts | 172° |
| 2026-04-15 14:40 | 48.56923 | 14.29922 | 35215 ft | 485 kts | 172° |
| 2026-04-15 14:40 | 48.50262 | 14.30988 | 35211 ft | 484 kts | 172° |
| 2026-04-15 14:41 | 48.43568 | 14.32056 | 35211 ft | 484 kts | 172° |
| 2026-04-15 14:41 | 48.36875 | 14.33117 | 35222 ft | 483 kts | 171° |
| 2026-04-15 14:42 | 48.30165 | 14.34185 | 35220 ft | 482 kts | 171° |
| 2026-04-15 14:42 | 48.23528 | 14.35234 | 35217 ft | 481 kts | 171° |
| 2026-04-15 14:43 | 48.16900 | 14.36273 | 35210 ft | 480 kts | 171° |
| 2026-04-15 14:43 | 48.10248 | 14.37325 | 35091 ft | 477 kts | 171° |
| 2026-04-15 14:43 | 48.06984 | 14.37843 | 34848 ft | 471 kts | 171° |
| 2026-04-15 14:44 | 48.03733 | 14.38356 | 34605 ft | 468 kts | 171° |
| 2026-04-15 14:44 | 48.00507 | 14.38859 | 34367 ft | 467 kts | 170° |
| 2026-04-15 14:44 | 47.97245 | 14.39365 | 34121 ft | 466 kts | 170° |
| 2026-04-15 14:44 | 47.94034 | 14.39865 | 33847 ft | 464 kts | 170° |
| 2026-04-15 14:45 | 47.90842 | 14.40364 | 33574 ft | 461 kts | 170° |
| 2026-04-15 14:45 | 47.87661 | 14.40864 | 33304 ft | 459 kts | 171° |
| 2026-04-15 14:45 | 47.84471 | 14.41364 | 33032 ft | 456 kts | 171° |
| 2026-04-15 14:45 | 47.81338 | 14.41856 | 32769 ft | 453 kts | 171° |
| 2026-04-15 14:46 | 47.78232 | 14.42346 | 32506 ft | 450 kts | 171° |
| 2026-04-15 14:46 | 47.75091 | 14.42837 | 32244 ft | 447 kts | 171° |
| 2026-04-15 14:46 | 47.72008 | 14.43313 | 31979 ft | 443 kts | 171° |
| 2026-04-15 14:46 | 47.68969 | 14.43779 | 31748 ft | 436 kts | 172° |
| 2026-04-15 14:47 | 47.66001 | 14.44233 | 31507 ft | 431 kts | 172° |
| 2026-04-15 14:47 | 47.62988 | 14.44696 | 31247 ft | 428 kts | 172° |
| 2026-04-15 14:47 | 47.60067 | 14.45146 | 31003 ft | 425 kts | 172° |
| 2026-04-15 14:47 | 47.57130 | 14.45597 | 30759 ft | 423 kts | 173° |
| 2026-04-15 14:48 | 47.54220 | 14.46041 | 30424 ft | 419 kts | 173° |
| 2026-04-15 14:48 | 47.51325 | 14.46485 | 29922 ft | 418 kts | 173° |
| 2026-04-15 14:48 | 47.48448 | 14.46928 | 29506 ft | 414 kts | 174° |
| 2026-04-15 14:48 | 47.45593 | 14.47367 | 29091 ft | 411 kts | 174° |
| 2026-04-15 14:49 | 47.42754 | 14.47803 | 28678 ft | 408 kts | 174° |
| 2026-04-15 14:49 | 47.39936 | 14.48236 | 28265 ft | 405 kts | 174° |
| 2026-04-15 14:49 | 47.37137 | 14.48669 | 27864 ft | 403 kts | 174° |
| 2026-04-15 14:49 | 47.34386 | 14.49090 | 27460 ft | 401 kts | 174° |
| 2026-04-15 14:50 | 47.31581 | 14.49514 | 27046 ft | 399 kts | 174° |
| 2026-04-15 14:50 | 47.28854 | 14.49926 | 26632 ft | 398 kts | 175° |
| 2026-04-15 14:50 | 47.26108 | 14.50349 | 26219 ft | 397 kts | 175° |
| 2026-04-15 14:50 | 47.23367 | 14.50774 | 25800 ft | 395 kts | 175° |
| 2026-04-15 14:51 | 47.20631 | 14.51197 | 25368 ft | 395 kts | 175° |
| 2026-04-15 14:51 | 47.17904 | 14.51611 | 24929 ft | 394 kts | 175° |
| 2026-04-15 14:51 | 47.15175 | 14.52022 | 24489 ft | 394 kts | 175° |
| 2026-04-15 14:51 | 47.12462 | 14.52431 | 24078 ft | 392 kts | 175° |
| 2026-04-15 14:52 | 47.09767 | 14.52837 | 23814 ft | 386 kts | 176° |
| 2026-04-15 14:52 | 47.07098 | 14.53239 | 23365 ft | 384 kts | 176° |
| 2026-04-15 14:52 | 47.04468 | 14.53637 | 23164 ft | 375 kts | 176° |
| 2026-04-15 14:52 | 47.01923 | 14.54022 | 23196 ft | 361 kts | 176° |
| 2026-04-15 14:53 | 46.99438 | 14.54398 | 23198 ft | 358 kts | 176° |
| 2026-04-15 14:53 | 46.96952 | 14.54773 | 22609 ft | 363 kts | 176° |
| 2026-04-15 14:53 | 46.94400 | 14.55157 | 21743 ft | 368 kts | 176° |
| 2026-04-15 14:53 | 46.91883 | 14.55536 | 20864 ft | 366 kts | 176° |
| 2026-04-15 14:54 | 46.89362 | 14.55915 | 20085 ft | 362 kts | 176° |
| 2026-04-15 14:54 | 46.86898 | 14.56287 | 19637 ft | 349 kts | 176° |
| 2026-04-15 14:54 | 46.84526 | 14.56648 | 19231 ft | 337 kts | 175° |
| 2026-04-15 14:54 | 46.82196 | 14.57000 | 18840 ft | 337 kts | 175° |
| 2026-04-15 14:55 | 46.79863 | 14.57347 | 18433 ft | 337 kts | 176° |
| 2026-04-15 14:55 | 46.77534 | 14.57691 | 17995 ft | 335 kts | 175° |
| 2026-04-15 14:55 | 46.75224 | 14.58036 | 17608 ft | 333 kts | 175° |
| 2026-04-15 14:55 | 46.72931 | 14.58376 | 17206 ft | 331 kts | 175° |
| 2026-04-15 14:56 | 46.70650 | 14.58715 | 16815 ft | 329 kts | 175° |
| 2026-04-15 14:56 | 46.68376 | 14.59053 | 16422 ft | 327 kts | 175° |
| 2026-04-15 14:56 | 46.66119 | 14.59391 | 16029 ft | 325 kts | 175° |
| 2026-04-15 14:56 | 46.63871 | 14.59724 | 15640 ft | 324 kts | 175° |
| 2026-04-15 14:57 | 46.61633 | 14.60054 | 15261 ft | 322 kts | 175° |
| 2026-04-15 14:57 | 46.59410 | 14.60383 | 14879 ft | 321 kts | 175° |
| 2026-04-15 14:57 | 46.57194 | 14.60714 | 14492 ft | 319 kts | 175° |
| 2026-04-15 14:57 | 46.54988 | 14.61042 | 14114 ft | 318 kts | 175° |
| 2026-04-15 14:58 | 46.52790 | 14.61365 | 13708 ft | 317 kts | 175° |
| 2026-04-15 14:58 | 46.50602 | 14.61688 | 13319 ft | 315 kts | 175° |
| 2026-04-15 14:58 | 46.48430 | 14.62011 | 12941 ft | 313 kts | 175° |
| 2026-04-15 14:58 | 46.46276 | 14.62329 | 12578 ft | 311 kts | 175° |
| 2026-04-15 14:59 | 46.44200 | 14.62839 | 12225 ft | 309 kts | 165° |
| 2026-04-15 14:59 | 46.42141 | 14.63713 | 11871 ft | 308 kts | 165° |
| 2026-04-15 14:59 | 46.40092 | 14.64582 | 11504 ft | 307 kts | 165° |
| 2026-04-15 14:59 | 46.38049 | 14.65444 | 11152 ft | 305 kts | 165° |
| 2026-04-15 15:00 | 46.36053 | 14.66283 | 10796 ft | 303 kts | 165° |
| 2026-04-15 15:00 | 46.33992 | 14.67147 | 10311 ft | 306 kts | 165° |
| 2026-04-15 15:00 | 46.32001 | 14.67981 | 10190 ft | 296 kts | 164° |
| 2026-04-15 15:00 | 46.30044 | 14.68804 | 9965 ft | 290 kts | 165° |
| 2026-04-15 15:01 | 46.28120 | 14.69614 | 9595 ft | 286 kts | 164° |
| 2026-04-15 15:01 | 46.26219 | 14.70414 | 8934 ft | 284 kts | 164° |
| 2026-04-15 15:01 | 46.24351 | 14.71206 | 8525 ft | 274 kts | 161° |
| 2026-04-15 15:01 | 46.22722 | 14.72488 | 8208 ft | 264 kts | 139° |
| 2026-04-15 15:02 | 46.21468 | 14.74427 | 7886 ft | 264 kts | 131° |
| 2026-04-15 15:02 | 46.20253 | 14.76441 | 7579 ft | 265 kts | 131° |
| 2026-04-15 15:02 | 46.19079 | 14.78386 | 7507 ft | 253 kts | 131° |
| 2026-04-15 15:02 | 46.17960 | 14.80230 | 7411 ft | 235 kts | 134° |
| 2026-04-15 15:03 | 46.16677 | 14.81609 | 7318 ft | 230 kts | 155° |
| 2026-04-15 15:03 | 46.15141 | 14.82161 | 7207 ft | 229 kts | 179° |
| 2026-04-15 15:03 | 46.13576 | 14.81770 | 7030 ft | 232 kts | 203° |
| 2026-04-15 15:03 | 46.12135 | 14.80689 | 6701 ft | 235 kts | 207° |
| 2026-04-15 15:04 | 46.10680 | 14.79563 | 6362 ft | 240 kts | 210° |
| 2026-04-15 15:04 | 46.09469 | 14.77883 | 6014 ft | 246 kts | 239° |
| 2026-04-15 15:04 | 46.08989 | 14.75566 | 5682 ft | 247 kts | 270° |
| 2026-04-15 15:04 | 46.09272 | 14.73140 | 5355 ft | 246 kts | 286° |
| 2026-04-15 15:05 | 46.09740 | 14.70767 | 5028 ft | 245 kts | 294° |
| 2026-04-15 15:05 | 46.10577 | 14.68687 | 4798 ft | 238 kts | 309° |
| 2026-04-15 15:05 | 46.11565 | 14.66781 | 4493 ft | 236 kts | 309° |
| 2026-04-15 15:05 | 46.12550 | 14.64877 | 4169 ft | 236 kts | 308° |
| 2026-04-15 15:06 | 46.14443 | 14.61200 | 3553 ft | 216 kts | 308° |
| 2026-04-15 15:06 | 46.15323 | 14.59491 | 3289 ft | 205 kts | 308° |
| 2026-04-15 15:06 | 46.16133 | 14.57915 | 3018 ft | 188 kts | 308° |
| 2026-04-15 15:07 | 46.16871 | 14.56477 | 2789 ft | 167 kts | 308° |
| 2026-04-15 15:07 | 46.17533 | 14.55189 | 2550 ft | 155 kts | 308° |
| 2026-04-15 15:07 | 46.18156 | 14.53977 | 2351 ft | 150 kts | 308° |
| 2026-04-15 15:07 | 46.18775 | 14.52774 | 2143 ft | 149 kts | 307° |
| 2026-04-15 15:08 | 46.19389 | 14.51579 | 1908 ft | 147 kts | 307° |
| 2026-04-15 15:08 | 46.19995 | 14.50399 | 1717 ft | 145 kts | 307° |
| 2026-04-15 15:08 | 46.20594 | 14.49231 | 1535 ft | 144 kts | 306° |
| 2026-04-15 15:08 | 46.21186 | 14.48072 | 1349 ft | 143 kts | 306° |
| 2026-04-15 15:09 | 46.21777 | 14.46924 | 1222 ft | 136 kts | 307° |
| 2026-04-15 15:09 | 46.22219 | 14.46060 | 1247 ft | 66 kts | 306° |
| 2026-04-15 15:09 | 46.22363 | 14.45776 | 1246 ft | 25 kts | 306° |
| 2026-04-15 15:09 | 46.22470 | 14.45573 | 1250 ft | 25 kts | 311° |
| 2026-04-15 15:10 | 46.22600 | 14.45409 | 1257 ft | 25 kts | 328° |
| 2026-04-15 15:10 | 46.22729 | 14.45345 | 1260 ft | 16 kts | 352° |
| 2026-04-15 15:10 | 46.22816 | 14.45328 | 1261 ft | 13 kts | 356° |
| 2026-04-15 15:10 | 46.22901 | 14.45377 | 1261 ft | 14 kts | 32° |
| 2026-04-15 15:11 | 46.22965 | 14.45430 | 1262 ft | 2 kts | 31° |
| 2026-04-15 15:11 | 46.22979 | 14.45442 | 1268 ft | 2 kts | 32° |
| 2026-04-15 15:11 | 46.22996 | 14.45459 | 1267 ft | 2 kts | 35° |
| 2026-04-15 15:11 | 46.23003 | 14.45467 | 1258 ft | 0 kts | 36° |